Аэропорт: Ханты-Мансийск. Ханты-Мансийск

ICAO: USHH

METAR:
2019/03/26 13:00
USHH 261300Z 18006MPS 9999 BKN008CB 01/M00 Q1005 R24/290050 TEMPO 0900 +SHSNRA OVC003CB RMK QFE750
METAR:
2019/03/26 12:00
TAF USHH 261056Z 2612/2712 18006G14MPS 3100 -SHSN BKN006 OVC011CB 
      TEMPO 2612/2615 17007G16MPS 0500 +SHSN OVC003CB 
      TEMPO 2615/2621 2100 -SHSN BR SCT004 BKN011CB 
      BECMG 2621/2623 24006G14MPS